Time,TemperatureF,DewpointF,PressureIn,WindDirection,WindDirectionDegrees,WindSpeedMPH,WindSpeedGustMPH,Humidity,HourlyPrecipIn,Conditions,Clouds,dailyrainin,SoftwareType,DateUTC
2013-01-08 00:00:00,31.7,0.0,30.34,NNW,328,0.0,0.0,0,0.00,,---,0.00,VWS V14.00,2013-01-08 05:00:00,
2013-01-08 00:01:00,31.6,0.0,30.34,NNW,328,0.0,0.0,0,0.00,,---,0.00,VWS V14.00,2013-01-08 05:01:00,
2013-01-08 00:02:00,26.9,0.0,30.34,SSW,200,3.5,7.5,0,0.00,,---,0.00,VWS V14.00,2013-01-08 05:02:00,
2013-01-08 00:03:00,26.9,0.0,30.34,SSW,200,0.0,9.6,0,0.00,,---,0.00,VWS V14.00,2013-01-08 05:03:00,
2013-01-08 00:04:00,31.6,0.0,30.34,NNW,328,0.0,0.0,0,0.00,,---,0.00,VWS V14.00,2013-01-08 05:04:00,
2013-01-08 00:05:00,31.7,0.0,30.34,NNW,328,0.0,0.0,0,0.00,,---,0.00,VWS V14.00,2013-01-08 05:05:00,
2013-01-08 00:06:00,31.7,0.0,30.34,NNW,328,0.0,0.0,0,0.00,,---,0.00,VWS V14.00,2013-01-08 05:06:00,
2013-01-08 00:07:00,31.6,0.0,30.34,NNW,328,0.0,0.0,0,0.00,,---,0.00,VWS V14.00,2013-01-08 05:07:00,
2013-01-08 00:08:00,26.9,0.0,30.34,South,172,0.0,7.8,0,0.00,,---,0.00,VWS V14.00,2013-01-08 05:08:00,
2013-01-08 00:13:00,26.9,0.0,30.34,South,186,5.3,7.8,0,0.00,,---,0.00,VWS V14.00,2013-01-08 05:13:00,
2013-01-08 00:18:00,27.0,0.0,30.34,SW,221,5.8,8.1,0,0.00,,---,0.00,VWS V14.00,2013-01-08 05:18:00,
2013-01-08 00:23:00,26.9,0.0,30.34,SSW,202,5.8,9.6,0,0.00,,---,0.00,VWS V14.00,2013-01-08 05:23:00,
2013-01-08 00:28:00,27.0,0.0,30.33,SW,228,5.7,7.7,0,0.00,,---,0.00,VWS V14.00,2013-01-08 05:28:00,
2013-01-08 00:33:00,27.0,0.0,30.34,SSE,163,0.0,8.9,0,0.00,,---,0.00,VWS V14.00,2013-01-08 05:33:00,
2013-01-08 00:38:00,26.7,0.0,30.34,SW,218,0.0,8.3,0,0.00,,---,0.00,VWS V14.00,2013-01-08 05:38:00,
2013-01-08 00:43:00,26.7,0.0,30.34,SW,214,7.2,9.0,0,0.00,,---,0.00,VWS V14.00,2013-01-08 05:43:00,
2013-01-08 00:48:00,26.7,0.0,30.33,SW,218,5.8,7.6,0,0.00,,---,0.00,VWS V14.00,2013-01-08 05:48:00,
2013-01-08 00:53:00,26.9,0.0,30.33,SSW,205,7.8,8.6,0,0.00,,---,0.00,VWS V14.00,2013-01-08 05:53:00,
2013-01-08 00:58:00,27.4,0.0,30.33,SSW,204,5.3,9.8,0,0.00,,---,0.00,VWS V14.00,2013-01-08 05:58:00,
2013-01-08 01:03:00,27.4,0.0,30.33,SSW,205,6.3,9.1,0,0.00,,---,0.00,VWS V14.00,2013-01-08 06:03:00,
2013-01-08 01:08:00,27.5,0.0,30.33,SW,226,7.3,9.5,0,0.00,,---,0.00,VWS V14.00,2013-01-08 06:08:00,
2013-01-08 01:13:00,27.5,0.0,30.33,SSW,204,0.0,7.3,0,0.00,,---,0.00,VWS V14.00,2013-01-08 06:13:00,
2013-01-08 01:18:00,27.3,0.0,30.33,SSW,201,0.0,3.4,0,0.00,,---,0.00,VWS V14.00,2013-01-08 06:18:00,
2013-01-08 01:23:00,27.7,0.0,30.33,SSW,201,0.0,0.0,0,0.00,,---,0.00,VWS V14.00,2013-01-08 06:23:00,
2013-01-08 01:28:00,27.8,0.0,30.32,SSW,201,0.0,0.0,0,0.00,,---,0.00,VWS V14.00,2013-01-08 06:28:00,
2013-01-08 01:33:00,27.8,0.0,30.32,SSW,201,0.0,0.0,0,0.00,,---,0.00,VWS V14.00,2013-01-08 06:33:00,
2013-01-08 01:38:00,27.7,0.0,30.32,SSW,197,0.0,6.1,0,0.00,,---,0.00,VWS V14.00,2013-01-08 06:38:00,
2013-01-08 01:43:00,27.8,0.0,30.32,South,190,0.0,7.6,0,0.00,,---,0.00,VWS V14.00,2013-01-08 06:43:00,
2013-01-08 01:48:00,28.0,0.0,30.32,SW,224,4.9,8.8,0,0.00,,---,0.00,VWS V14.00,2013-01-08 06:48:00,
2013-01-08 01:53:00,27.9,0.0,30.33,SW,219,5.9,8.6,0,0.00,,---,0.00,VWS V14.00,2013-01-08 06:53:00,
2013-01-08 01:58:00,27.9,0.0,30.33,SW,217,4.5,7.9,0,0.00,,---,0.00,VWS V14.00,2013-01-08 06:58:00,
2013-01-08 02:03:00,27.9,0.0,30.32,SSW,197,0.0,8.0,0,0.00,,---,0.00,VWS V14.00,2013-01-08 07:03:00,
2013-01-08 02:08:00,27.6,0.0,30.32,South,191,0.0,4.5,0,0.00,,---,0.00,VWS V14.00,2013-01-08 07:08:00,
2013-01-08 02:13:00,27.6,0.0,30.32,South,191,0.0,0.0,0,0.00,,---,0.00,VWS V14.00,2013-01-08 07:13:00,
2013-01-08 02:18:00,27.6,0.0,30.32,South,191,0.0,0.0,0,0.00,,---,0.00,VWS V14.00,2013-01-08 07:18:00,
2013-01-08 02:23:00,27.5,0.0,30.32,South,183,0.0,6.1,0,0.00,,---,0.00,VWS V14.00,2013-01-08 07:23:00,
2013-01-08 02:28:00,27.4,0.0,30.31,SSW,204,6.6,8.8,0,0.00,,---,0.00,VWS V14.00,2013-01-08 07:28:00,
2013-01-08 02:33:00,27.4,0.0,30.31,SSW,202,6.0,9.8,0,0.00,,---,0.00,VWS V14.00,2013-01-08 07:33:00,
2013-01-08 02:38:00,27.9,0.0,30.31,SW,224,8.9,9.6,0,0.00,,---,0.00,VWS V14.00,2013-01-08 07:38:00,
2013-01-08 02:43:00,28.0,0.0,30.31,South,184,6.6,9.3,0,0.00,,---,0.00,VWS V14.00,2013-01-08 07:43:00,
2013-01-08 02:48:00,28.0,0.0,30.31,SW,215,8.1,9.3,0,0.00,,---,0.00,VWS V14.00,2013-01-08 07:48:00,
2013-01-08 02:53:00,28.2,0.0,30.31,SSW,204,0.0,9.9,0,0.00,,---,0.00,VWS V14.00,2013-01-08 07:53:00,
2013-01-08 02:58:00,28.1,0.0,30.31,SSW,201,4.2,8.6,0,0.00,,---,0.00,VWS V14.00,2013-01-08 07:58:00,
2013-01-08 03:03:00,28.0,0.0,30.31,SSE,167,3.5,6.8,0,0.00,,---,0.00,VWS V14.00,2013-01-08 08:03:00,
2013-01-08 03:08:00,28.0,0.0,30.31,SSW,211,4.8,7.7,0,0.00,,---,0.00,VWS V14.00,2013-01-08 08:08:00,
2013-01-08 03:13:00,27.9,0.0,30.31,SSW,198,6.1,7.9,0,0.00,,---,0.00,VWS V14.00,2013-01-08 08:13:00,
2013-01-08 03:18:00,28.0,0.0,30.31,South,187,3.2,8.3,0,0.00,,---,0.00,VWS V14.00,2013-01-08 08:18:00,
2013-01-08 03:23:00,28.0,0.0,30.31,SSW,198,4.6,8.0,0,0.00,,---,0.00,VWS V14.00,2013-01-08 08:23:00,
2013-01-08 03:28:00,28.1,0.0,30.30,SSW,195,5.1,7.3,0,0.00,,---,0.00,VWS V14.00,2013-01-08 08:28:00,
2013-01-08 03:33:00,28.1,0.0,30.30,SSW,211,4.7,6.8,0,0.00,,---,0.00,VWS V14.00,2013-01-08 08:33:00,
2013-01-08 03:38:00,28.2,0.0,30.30,SSW,193,0.0,6.5,0,0.00,,---,0.00,VWS V14.00,2013-01-08 08:38:00,
2013-01-08 03:43:00,28.1,0.0,30.30,SSW,193,0.0,8.3,0,0.00,,---,0.00,VWS V14.00,2013-01-08 08:43:00,
2013-01-08 03:48:00,28.5,0.0,30.30,South,184,4.9,0.0,0,0.00,,---,0.00,VWS V14.00,2013-01-08 08:48:00,
2013-01-08 03:53:00,28.6,0.0,30.30,SSW,202,0.0,7.6,0,0.00,,---,0.00,VWS V14.00,2013-01-08 08:53:00,
2013-01-08 03:58:00,28.8,0.0,30.29,SW,222,4.5,7.5,0,0.00,,---,0.00,VWS V14.00,2013-01-08 08:58:00,
2013-01-08 04:03:00,28.7,0.0,30.29,South,179,0.0,7.3,0,0.00,,---,0.00,VWS V14.00,2013-01-08 09:03:00,
2013-01-08 04:08:00,28.9,0.0,30.29,SW,225,0.0,5.7,0,0.00,,---,0.00,VWS V14.00,2013-01-08 09:08:00,
2013-01-08 04:12:00,28.7,0.0,30.29,SW,225,0.0,5.7,0,0.00,,---,0.00,VWS V14.00,2013-01-08 09:12:00,
2013-01-08 04:17:00,28.9,0.0,30.29,SSW,211,7.7,0.0,0,0.00,,---,0.00,VWS V14.00,2013-01-08 09:17:00,
2013-01-08 04:22:00,29.0,0.0,30.28,SW,218,6.0,9.4,0,0.00,,---,0.00,VWS V14.00,2013-01-08 09:22:00,
2013-01-08 04:27:00,28.8,0.0,30.28,SW,214,4.2,9.6,0,0.00,,---,0.00,VWS V14.00,2013-01-08 09:27:00,
2013-01-08 04:32:00,28.7,0.0,30.28,SW,221,7.6,10.6,0,0.00,,---,0.00,VWS V14.00,2013-01-08 09:32:00,
2013-01-08 04:37:00,28.6,0.0,30.28,SSW,210,6.0,8.7,0,0.00,,---,0.00,VWS V14.00,2013-01-08 09:37:00,
2013-01-08 04:42:00,28.7,0.0,30.28,SSW,194,0.0,9.9,0,0.00,,---,0.00,VWS V14.00,2013-01-08 09:42:00,
2013-01-08 04:47:00,28.7,0.0,30.28,SSW,195,5.9,8.1,0,0.00,,---,0.00,VWS V14.00,2013-01-08 09:47:00,
2013-01-08 04:52:00,28.8,0.0,30.28,South,187,5.0,10.3,0,0.00,,---,0.00,VWS V14.00,2013-01-08 09:52:00,
2013-01-08 04:57:00,28.8,0.0,30.28,SW,219,0.0,10.3,0,0.00,,---,0.00,VWS V14.00,2013-01-08 09:57:00,
2013-01-08 05:02:00,29.0,0.0,30.28,South,190,6.6,11.3,0,0.00,,---,0.00,VWS V14.00,2013-01-08 10:02:00,
2013-01-08 05:07:00,29.1,0.0,30.27,SW,226,7.0,10.1,0,0.00,,---,0.00,VWS V14.00,2013-01-08 10:07:00,
2013-01-08 05:12:00,29.0,0.0,30.27,SSW,207,0.0,10.1,0,0.00,,---,0.00,VWS V14.00,2013-01-08 10:12:00,
2013-01-08 05:17:00,29.0,0.0,30.27,SSW,208,6.0,9.1,0,0.00,,---,0.00,VWS V14.00,2013-01-08 10:17:00,
2013-01-08 05:22:00,29.2,0.0,30.27,SSW,201,5.5,7.9,0,0.00,,---,0.00,VWS V14.00,2013-01-08 10:22:00,
2013-01-08 05:27:00,29.1,0.0,30.27,SSW,210,7.0,11.8,0,0.00,,---,0.00,VWS V14.00,2013-01-08 10:27:00,
2013-01-08 05:32:00,29.0,0.0,30.27,SW,217,5.7,8.8,0,0.00,,---,0.00,VWS V14.00,2013-01-08 10:32:00,
2013-01-08 05:37:00,29.1,0.0,30.27,SW,215,6.0,11.4,0,0.00,,---,0.00,VWS V14.00,2013-01-08 10:37:00,
2013-01-08 05:42:00,28.9,0.0,30.27,SSW,204,7.8,13.1,0,0.00,,---,0.00,VWS V14.00,2013-01-08 10:42:00,
2013-01-08 05:47:00,28.9,0.0,30.26,SSW,212,6.1,8.6,0,0.00,,---,0.00,VWS V14.00,2013-01-08 10:47:00,
2013-01-08 05:52:00,28.8,0.0,30.26,SSW,194,6.2,10.8,0,0.00,,---,0.00,VWS V14.00,2013-01-08 10:52:00,
2013-01-08 05:57:00,28.9,0.0,30.26,South,180,5.7,8.7,0,0.00,,---,0.00,VWS V14.00,2013-01-08 10:57:00,
2013-01-08 06:02:00,28.7,0.0,30.26,SSW,211,8.6,10.0,0,0.00,,---,0.00,VWS V14.00,2013-01-08 11:02:00,
2013-01-08 06:07:00,28.7,0.0,30.26,SSW,193,5.5,9.4,0,0.00,,---,0.00,VWS V14.00,2013-01-08 11:07:00,
2013-01-08 06:12:00,28.7,0.0,30.26,South,187,7.2,10.3,0,0.00,,---,0.00,VWS V14.00,2013-01-08 11:12:00,
2013-01-08 06:17:00,28.7,0.0,30.26,South,191,10.9,10.9,0,0.00,,---,0.00,VWS V14.00,2013-01-08 11:17:00,
2013-01-08 06:22:00,28.8,0.0,30.26,SSW,200,7.8,11.1,0,0.00,,---,0.00,VWS V14.00,2013-01-08 11:22:00,
2013-01-08 06:27:00,29.0,0.0,30.26,SSW,211,8.8,11.5,0,0.00,,---,0.00,VWS V14.00,2013-01-08 11:27:00,
2013-01-08 06:32:00,29.2,0.0,30.26,SW,217,7.5,13.2,0,0.00,,---,0.00,VWS V14.00,2013-01-08 11:32:00,
2013-01-08 06:37:00,29.3,0.0,30.26,SSW,202,11.4,13.6,0,0.00,,---,0.00,VWS V14.00,2013-01-08 11:37:00,
2013-01-08 06:42:00,29.2,0.0,30.26,SSW,208,8.0,14.4,0,0.00,,---,0.00,VWS V14.00,2013-01-08 11:42:00,
2013-01-08 06:47:00,29.2,0.0,30.26,SW,218,11.9,12.1,0,0.00,,---,0.00,VWS V14.00,2013-01-08 11:47:00,
2013-01-08 06:52:00,29.3,0.0,30.26,SSW,212,8.9,13.4,0,0.00,,---,0.00,VWS V14.00,2013-01-08 11:52:00,
2013-01-08 06:57:00,29.3,0.0,30.26,SSW,212,8.4,13.2,0,0.00,,---,0.00,VWS V14.00,2013-01-08 11:57:00,
2013-01-08 07:02:00,29.4,0.0,30.26,SSW,204,7.5,13.9,0,0.00,,---,0.00,VWS V14.00,2013-01-08 12:02:00,
2013-01-08 07:07:00,29.6,0.0,30.26,SW,226,5.8,12.7,0,0.00,,---,0.00,VWS V14.00,2013-01-08 12:07:00,
2013-01-08 07:12:00,29.6,0.0,30.27,SW,232,8.3,12.4,0,0.00,,---,0.00,VWS V14.00,2013-01-08 12:12:00,
2013-01-08 07:17:00,29.8,0.0,30.27,SW,215,6.5,11.9,0,0.00,,---,0.00,VWS V14.00,2013-01-08 12:17:00,
2013-01-08 07:22:00,29.9,0.0,30.27,SSW,207,8.7,13.9,0,0.00,,---,0.00,VWS V14.00,2013-01-08 12:22:00,
2013-01-08 07:27:00,30.0,0.0,30.27,SSW,211,5.8,12.1,0,0.00,,---,0.00,VWS V14.00,2013-01-08 12:27:00,
2013-01-08 07:32:00,30.2,0.0,30.27,SW,224,9.9,10.6,0,0.00,,---,0.00,VWS V14.00,2013-01-08 12:32:00,
2013-01-08 07:37:00,30.3,0.0,30.28,SW,228,8.0,13.0,0,0.00,,---,0.00,VWS V14.00,2013-01-08 12:37:00,
2013-01-08 07:42:00,30.4,0.0,30.28,SW,221,11.1,15.6,0,0.00,,---,0.00,VWS V14.00,2013-01-08 12:42:00,
2013-01-08 07:47:00,30.7,0.0,30.28,SW,218,8.4,13.6,0,0.00,,---,0.00,VWS V14.00,2013-01-08 12:47:00,
2013-01-08 07:52:00,30.8,0.0,30.28,SW,218,9.9,15.3,0,0.00,,---,0.00,VWS V14.00,2013-01-08 12:52:00,
2013-01-08 07:57:00,31.0,0.0,30.28,SSW,202,6.5,13.9,0,0.00,,---,0.00,VWS V14.00,2013-01-08 12:57:00,
2013-01-08 08:02:00,31.2,0.0,30.29,SSW,202,6.3,12.8,0,0.00,,---,0.00,VWS V14.00,2013-01-08 13:02:00,
2013-01-08 08:07:00,31.3,0.0,30.29,SW,224,0.0,11.2,0,0.00,,---,0.00,VWS V14.00,2013-01-08 13:07:00,
2013-01-08 08:12:00,31.6,0.0,30.29,SW,222,5.3,8.7,0,0.00,,---,0.00,VWS V14.00,2013-01-08 13:12:00,
2013-01-08 08:17:00,31.8,0.0,30.29,SW,222,7.3,10.7,0,0.00,,---,0.00,VWS V14.00,2013-01-08 13:17:00,
2013-01-08 08:22:00,32.1,0.0,30.29,SW,233,4.5,7.6,0,0.00,,---,0.00,VWS V14.00,2013-01-08 13:22:00,
2013-01-08 08:27:00,32.5,0.0,30.29,SW,233,0.0,8.4,0,0.00,,---,0.00,VWS V14.00,2013-01-08 13:27:00,
2013-01-08 08:32:00,32.8,0.0,30.29,SSW,208,4.3,0.0,0,0.00,,---,0.00,VWS V14.00,2013-01-08 13:32:00,
2013-01-08 08:37:00,33.3,0.0,30.29,SW,218,0.0,9.3,0,0.00,,---,0.00,VWS V14.00,2013-01-08 13:37:00,
2013-01-08 08:42:00,33.8,0.0,30.28,SW,218,10.7,10.7,0,0.00,,---,0.00,VWS V14.00,2013-01-08 13:42:00,
2013-01-08 08:47:00,34.3,0.0,30.28,WSW,255,7.7,13.2,0,0.00,,---,0.00,VWS V14.00,2013-01-08 13:47:00,
2013-01-08 08:52:00,34.6,0.0,30.28,SW,224,17.3,17.3,0,0.00,,---,0.00,VWS V14.00,2013-01-08 13:52:00,
2013-01-08 08:57:00,34.8,0.0,30.28,SSW,205,15.4,18.6,0,0.00,,---,0.00,VWS V14.00,2013-01-08 13:57:00,
2013-01-08 09:02:00,34.9,0.0,30.29,SSW,212,12.8,17.0,0,0.00,,---,0.00,VWS V14.00,2013-01-08 14:02:00,
2013-01-08 09:07:00,35.1,0.0,30.29,SW,231,12.9,18.1,0,0.00,,---,0.00,VWS V14.00,2013-01-08 14:07:00,
2013-01-08 09:12:00,35.3,0.0,30.29,SW,235,14.2,19.0,0,0.00,,---,0.00,VWS V14.00,2013-01-08 14:12:00,
2013-01-08 09:17:00,35.6,0.0,30.29,SW,225,12.2,19.3,0,0.00,,---,0.00,VWS V14.00,2013-01-08 14:17:00,
2013-01-08 09:22:00,35.8,0.0,30.29,WSW,246,11.1,17.6,0,0.00,,---,0.00,VWS V14.00,2013-01-08 14:22:00,
2013-01-08 09:27:00,36.1,0.0,30.29,SW,218,16.4,19.5,0,0.00,,---,0.00,VWS V14.00,2013-01-08 14:27:00,
2013-01-08 09:32:00,36.4,0.0,30.28,SW,215,11.4,20.0,0,0.00,,---,0.00,VWS V14.00,2013-01-08 14:32:00,
2013-01-08 09:37:00,36.6,0.0,30.28,SSW,210,11.2,21.7,0,0.00,,---,0.00,VWS V14.00,2013-01-08 14:37:00,
2013-01-08 09:42:00,36.9,0.0,30.28,SW,231,10.0,20.4,0,0.00,,---,0.00,VWS V14.00,2013-01-08 14:42:00,
2013-01-08 09:47:00,37.3,0.0,30.28,SW,229,10.9,20.8,0,0.00,,---,0.00,VWS V14.00,2013-01-08 14:47:00,
2013-01-08 09:52:00,37.7,0.0,30.28,SW,222,15.7,19.3,0,0.00,,---,0.00,VWS V14.00,2013-01-08 14:52:00,
2013-01-08 09:57:00,38.0,0.0,30.28,SSW,200,12.7,21.1,0,0.00,,---,0.00,VWS V14.00,2013-01-08 14:57:00,
2013-01-08 10:02:00,38.3,0.0,30.28,SW,222,14.8,20.6,0,0.00,,---,0.00,VWS V14.00,2013-01-08 15:02:00,
2013-01-08 10:07:00,38.8,0.0,30.28,SSW,202,13.7,21.5,0,0.00,,---,0.00,VWS V14.00,2013-01-08 15:07:00,
2013-01-08 10:12:00,39.4,0.0,30.28,SW,221,12.2,18.3,0,0.00,,---,0.00,VWS V14.00,2013-01-08 15:12:00,
2013-01-08 10:17:00,39.5,0.0,30.28,WSW,245,13.9,19.3,0,0.00,,---,0.00,VWS V14.00,2013-01-08 15:17:00,
2013-01-08 10:22:00,39.8,0.0,30.27,WSW,255,6.6,19.4,0,0.00,,---,0.00,VWS V14.00,2013-01-08 15:22:00,
2013-01-08 10:27:00,40.4,0.0,30.27,SW,222,9.1,18.1,0,0.00,,---,0.00,VWS V14.00,2013-01-08 15:27:00,
2013-01-08 10:32:00,40.7,0.0,30.27,SSW,212,14.8,22.2,0,0.00,,---,0.00,VWS V14.00,2013-01-08 15:32:00,
2013-01-08 10:37:00,41.1,0.0,30.26,SW,217,10.7,21.1,0,0.00,,---,0.00,VWS V14.00,2013-01-08 15:37:00,
2013-01-08 10:42:00,40.8,0.0,30.26,SW,215,12.7,16.7,0,0.00,,---,0.00,VWS V14.00,2013-01-08 15:42:00,
2013-01-08 10:47:00,41.9,0.0,30.26,SSW,212,9.1,19.2,0,0.00,,---,0.00,VWS V14.00,2013-01-08 15:47:00,
2013-01-08 10:52:00,41.9,0.0,30.26,SW,235,14.7,16.7,0,0.00,,---,0.00,VWS V14.00,2013-01-08 15:52:00,
2013-01-08 10:57:00,42.2,0.0,30.26,SW,217,9.2,19.6,0,0.00,,---,0.00,VWS V14.00,2013-01-08 15:57:00,
2013-01-08 11:02:00,42.1,0.0,30.26,SW,219,13.3,20.9,0,0.00,,---,0.00,VWS V14.00,2013-01-08 16:02:00,
2013-01-08 11:07:00,41.9,0.0,30.25,SW,226,9.1,20.3,0,0.00,,---,0.00,VWS V14.00,2013-01-08 16:07:00,
2013-01-08 11:12:00,43.1,0.0,30.25,SSW,211,11.6,19.8,0,0.00,,---,0.00,VWS V14.00,2013-01-08 16:12:00,
2013-01-08 11:17:00,42.9,0.0,30.25,SW,218,7.8,18.4,0,0.00,,---,0.00,VWS V14.00,2013-01-08 16:17:00,
2013-01-08 11:22:00,42.5,0.0,30.25,WSW,239,7.5,19.0,0,0.00,,---,0.00,VWS V14.00,2013-01-08 16:22:00,
2013-01-08 11:27:00,42.5,0.0,30.24,WSW,240,12.1,14.3,0,0.00,,---,0.00,VWS V14.00,2013-01-08 16:27:00,
2013-01-08 11:32:00,43.0,0.0,30.24,SW,232,11.0,14.3,0,0.00,,---,0.00,VWS V14.00,2013-01-08 16:32:00,
2013-01-08 11:37:00,43.7,0.0,30.24,SW,219,9.0,16.8,0,0.00,,---,0.00,VWS V14.00,2013-01-08 16:37:00,
2013-01-08 11:42:00,43.9,0.0,30.24,SW,214,10.6,19.4,0,0.00,,---,0.00,VWS V14.00,2013-01-08 16:42:00,
2013-01-08 11:47:00,44.2,0.0,30.24,SW,235,12.1,17.7,0,0.00,,---,0.00,VWS V14.00,2013-01-08 16:47:00,
2013-01-08 11:52:00,44.1,0.0,30.23,SW,235,9.6,18.5,0,0.00,,---,0.00,VWS V14.00,2013-01-08 16:52:00,
2013-01-08 11:57:00,44.0,0.0,30.23,SW,214,12.6,18.7,0,0.00,,---,0.00,VWS V14.00,2013-01-08 16:57:00,
2013-01-08 12:02:00,44.1,0.0,30.23,SW,232,6.2,16.5,0,0.00,,---,0.00,VWS V14.00,2013-01-08 17:02:00,
2013-01-08 12:07:00,44.8,0.0,30.23,SSW,204,7.7,14.7,0,0.00,,---,0.00,VWS V14.00,2013-01-08 17:07:00,
2013-01-08 12:12:00,44.8,0.0,30.22,SW,224,0.0,17.3,0,0.00,,---,0.00,VWS V14.00,2013-01-08 17:12:00,
2013-01-08 12:17:00,45.1,0.0,30.22,WSW,245,11.3,15.5,0,0.00,,---,0.00,VWS V14.00,2013-01-08 17:17:00,
2013-01-08 12:22:00,45.2,0.0,30.22,SSW,202,8.2,18.5,0,0.00,,---,0.00,VWS V14.00,2013-01-08 17:22:00,
2013-01-08 12:27:00,45.9,0.0,30.22,SW,231,8.2,19.2,0,0.00,,---,0.00,VWS V14.00,2013-01-08 17:27:00,
2013-01-08 12:32:00,45.6,0.0,30.22,SW,221,6.6,15.5,0,0.00,,---,0.00,VWS V14.00,2013-01-08 17:32:00,
2013-01-08 12:37:00,45.4,0.0,30.22,SW,235,5.0,14.5,0,0.00,,---,0.00,VWS V14.00,2013-01-08 17:37:00,
2013-01-08 12:42:00,45.6,0.0,30.22,SW,236,7.0,15.7,0,0.00,,---,0.00,VWS V14.00,2013-01-08 17:42:00,
2013-01-08 12:47:00,45.6,0.0,30.22,SW,214,9.2,15.7,0,0.00,,---,0.00,VWS V14.00,2013-01-08 17:47:00,
2013-01-08 12:52:00,45.8,0.0,30.21,SW,219,11.1,17.5,0,0.00,,---,0.00,VWS V14.00,2013-01-08 17:52:00,
2013-01-08 12:57:00,45.3,0.0,30.22,WSW,248,7.8,15.2,0,0.00,,---,0.00,VWS V14.00,2013-01-08 17:57:00,
2013-01-08 13:02:00,45.3,0.0,30.21,SW,229,13.0,17.7,0,0.00,,---,0.00,VWS V14.00,2013-01-08 18:02:00,
2013-01-08 13:07:00,45.4,0.0,30.21,SW,229,10.9,16.1,0,0.00,,---,0.00,VWS V14.00,2013-01-08 18:07:00,
2013-01-08 13:12:00,45.3,0.0,30.21,SSW,193,10.4,15.0,0,0.00,,---,0.00,VWS V14.00,2013-01-08 18:12:00,
2013-01-08 13:17:00,45.6,0.0,30.21,SW,235,5.9,15.5,0,0.00,,---,0.00,VWS V14.00,2013-01-08 18:17:00,
2013-01-08 13:22:00,45.7,0.0,30.21,SW,228,7.1,15.6,0,0.00,,---,0.00,VWS V14.00,2013-01-08 18:22:00,
2013-01-08 13:27:00,45.7,0.0,30.21,SSW,200,8.5,14.9,0,0.00,,---,0.00,VWS V14.00,2013-01-08 18:27:00,
2013-01-08 13:32:00,45.4,0.0,30.21,SW,222,5.7,14.7,0,0.00,,---,0.00,VWS V14.00,2013-01-08 18:32:00,
2013-01-08 13:37:00,45.4,0.0,30.21,SW,222,12.1,17.2,0,0.00,,---,0.00,VWS V14.00,2013-01-08 18:37:00,
2013-01-08 13:42:00,45.2,0.0,30.21,WSW,256,6.7,18.8,0,0.00,,---,0.00,VWS V14.00,2013-01-08 18:42:00,
2013-01-08 13:47:00,44.9,0.0,30.21,SSW,207,9.2,19.1,0,0.00,,---,0.00,VWS V14.00,2013-01-08 18:47:00,
2013-01-08 13:52:00,45.2,0.0,30.21,SW,221,9.6,16.8,0,0.00,,---,0.00,VWS V14.00,2013-01-08 18:52:00,
2013-01-08 13:57:00,45.1,0.0,30.21,WSW,238,10.7,16.4,0,0.00,,---,0.00,VWS V14.00,2013-01-08 18:57:00,
2013-01-08 14:02:00,44.7,0.0,30.22,WSW,243,9.7,20.0,0,0.00,,---,0.00,VWS V14.00,2013-01-08 19:02:00,
2013-01-08 14:07:00,44.9,0.0,30.22,SW,233,6.8,17.3,0,0.00,,---,0.00,VWS V14.00,2013-01-08 19:07:00,
2013-01-08 14:12:00,44.8,0.0,30.22,SW,222,9.8,13.4,0,0.00,,---,0.00,VWS V14.00,2013-01-08 19:12:00,
2013-01-08 14:17:00,44.8,0.0,30.22,WSW,248,14.7,15.9,0,0.00,,---,0.00,VWS V14.00,2013-01-08 19:17:00,
2013-01-08 14:22:00,44.6,0.0,30.22,WNW,292,9.3,18.2,0,0.00,,---,0.00,VWS V14.00,2013-01-08 19:22:00,
2013-01-08 14:27:00,44.5,0.0,30.22,SW,218,7.5,15.8,0,0.00,,---,0.00,VWS V14.00,2013-01-08 19:27:00,
2013-01-08 14:32:00,44.7,0.0,30.23,SSW,207,6.4,14.1,0,0.00,,---,0.00,VWS V14.00,2013-01-08 19:32:00,
2013-01-08 14:37:00,44.5,0.0,30.23,SW,217,11.1,16.2,0,0.00,,---,0.00,VWS V14.00,2013-01-08 19:37:00,
2013-01-08 14:42:00,44.7,0.0,30.23,SW,218,11.1,16.0,0,0.00,,---,0.00,VWS V14.00,2013-01-08 19:42:00,
2013-01-08 14:47:00,44.3,0.0,30.23,SW,221,8.1,13.5,0,0.00,,---,0.00,VWS V14.00,2013-01-08 19:47:00,
2013-01-08 14:52:00,44.4,0.0,30.23,SW,218,11.7,17.4,0,0.00,,---,0.00,VWS V14.00,2013-01-08 19:52:00,
2013-01-08 14:57:00,43.9,0.0,30.23,SW,217,11.5,16.7,0,0.00,,---,0.00,VWS V14.00,2013-01-08 19:57:00,
2013-01-08 15:02:00,43.9,0.0,30.23,SSW,212,8.0,15.3,0,0.00,,---,0.00,VWS V14.00,2013-01-08 20:02:00,
2013-01-08 15:07:00,43.7,0.0,30.23,SSW,195,7.0,15.8,0,0.00,,---,0.00,VWS V14.00,2013-01-08 20:07:00,
2013-01-08 15:12:00,43.6,0.0,30.23,SSW,210,5.8,17.3,0,0.00,,---,0.00,VWS V14.00,2013-01-08 20:12:00,
2013-01-08 15:17:00,43.5,0.0,30.24,SW,214,7.5,15.0,0,0.00,,---,0.00,VWS V14.00,2013-01-08 20:17:00,
2013-01-08 15:22:00,42.8,0.0,30.24,SW,219,1.9,15.6,0,0.00,,---,0.00,VWS V14.00,2013-01-08 20:22:00,
2013-01-08 15:27:00,42.8,0.0,30.24,SW,217,2.8,11.9,0,0.00,,---,0.00,VWS V14.00,2013-01-08 20:27:00,
2013-01-08 15:32:00,42.7,0.0,30.24,SSW,201,9.8,12.3,0,0.00,,---,0.00,VWS V14.00,2013-01-08 20:32:00,
2013-01-08 15:37:00,42.6,0.0,30.24,SW,231,7.8,12.6,0,0.00,,---,0.00,VWS V14.00,2013-01-08 20:37:00,
2013-01-08 15:42:00,42.6,0.0,30.24,SW,219,8.4,13.4,0,0.00,,---,0.00,VWS V14.00,2013-01-08 20:42:00,
2013-01-08 15:47:00,42.6,0.0,30.24,SW,235,8.6,14.6,0,0.00,,---,0.00,VWS V14.00,2013-01-08 20:47:00,
2013-01-08 15:52:00,42.5,0.0,30.24,SW,222,7.3,13.0,0,0.00,,---,0.00,VWS V14.00,2013-01-08 20:52:00,
2013-01-08 15:57:00,42.3,0.0,30.24,SW,226,7.9,9.3,0,0.00,,---,0.00,VWS V14.00,2013-01-08 20:57:00,
2013-01-08 16:02:00,42.1,0.0,30.24,SW,228,7.6,9.6,0,0.00,,---,0.00,VWS V14.00,2013-01-08 21:02:00,
2013-01-08 16:07:00,41.8,0.0,30.24,SW,232,8.9,11.6,0,0.00,,---,0.00,VWS V14.00,2013-01-08 21:07:00,
2013-01-08 16:12:00,41.5,0.0,30.24,SW,218,5.3,11.1,0,0.00,,---,0.00,VWS V14.00,2013-01-08 21:12:00,
2013-01-08 16:17:00,41.3,0.0,30.24,WSW,238,7.8,12.5,0,0.00,,---,0.00,VWS V14.00,2013-01-08 21:17:00,
2013-01-08 16:22:00,41.3,0.0,30.25,SW,228,5.3,12.0,0,0.00,,---,0.00,VWS V14.00,2013-01-08 21:22:00,
2013-01-08 16:27:00,41.0,0.0,30.25,SW,218,0.0,11.8,0,0.00,,---,0.00,VWS V14.00,2013-01-08 21:27:00,
2013-01-08 16:32:00,41.1,0.0,30.25,WSW,240,5.9,7.5,0,0.00,,---,0.00,VWS V14.00,2013-01-08 21:32:00,
2013-01-08 16:37:00,40.6,0.0,30.25,SW,219,0.0,11.6,0,0.00,,---,0.00,VWS V14.00,2013-01-08 21:37:00,
2013-01-08 16:42:00,40.3,0.0,30.25,SSW,204,5.8,8.6,0,0.00,,---,0.00,VWS V14.00,2013-01-08 21:42:00,
2013-01-08 16:47:00,40.1,0.0,30.26,SW,225,0.0,7.8,0,0.00,,---,0.00,VWS V14.00,2013-01-08 21:47:00,
2013-01-08 16:52:00,39.8,0.0,30.26,WSW,243,0.0,3.5,0,0.00,,---,0.00,VWS V14.00,2013-01-08 21:52:00,
2013-01-08 16:57:00,39.7,0.0,30.26,SW,214,0.0,5.2,0,0.00,,---,0.00,VWS V14.00,2013-01-08 21:57:00,
2013-01-08 17:02:00,39.5,0.0,30.26,South,191,0.0,4.3,0,0.00,,---,0.00,VWS V14.00,2013-01-08 22:02:00,
2013-01-08 17:07:00,39.3,0.0,30.26,South,191,0.0,2.6,0,0.00,,---,0.00,VWS V14.00,2013-01-08 22:07:00,
2013-01-08 17:12:00,39.1,0.0,30.26,South,191,0.0,0.0,0,0.00,,---,0.00,VWS V14.00,2013-01-08 22:12:00,
2013-01-08 17:17:00,39.0,0.0,30.26,South,191,0.0,0.0,0,0.00,,---,0.00,VWS V14.00,2013-01-08 22:17:00,
2013-01-08 17:22:00,38.6,0.0,30.26,South,191,0.0,0.0,0,0.00,,---,0.00,VWS V14.00,2013-01-08 22:22:00,
2013-01-08 17:27:00,38.5,0.0,30.26,South,191,0.0,0.0,0,0.00,,---,0.00,VWS V14.00,2013-01-08 22:27:00,
2013-01-08 17:32:00,38.5,0.0,30.27,South,191,0.0,0.0,0,0.00,,---,0.00,VWS V14.00,2013-01-08 22:32:00,
2013-01-08 17:37:00,38.5,0.0,30.27,South,191,0.0,0.0,0,0.00,,---,0.00,VWS V14.00,2013-01-08 22:37:00,
2013-01-08 17:42:00,38.5,0.0,30.27,South,191,0.0,0.0,0,0.00,,---,0.00,VWS V14.00,2013-01-08 22:42:00,
2013-01-08 17:47:00,38.5,0.0,30.27,South,191,0.0,0.0,0,0.00,,---,0.00,VWS V14.00,2013-01-08 22:47:00,
2013-01-08 17:52:00,38.8,0.0,30.27,South,191,0.0,0.0,0,0.00,,---,0.00,VWS V14.00,2013-01-08 22:52:00,
2013-01-08 17:57:00,40.5,0.0,30.28,South,191,0.0,0.0,0,0.00,,---,0.00,VWS V14.00,2013-01-08 22:57:00,
2013-01-08 18:02:00,41.4,0.0,30.28,South,191,0.0,0.0,0,0.00,,---,0.00,VWS V14.00,2013-01-08 23:02:00,
2013-01-08 18:07:00,41.4,0.0,30.28,South,191,0.0,0.0,0,0.00,,---,0.00,VWS V14.00,2013-01-08 23:07:00,
2013-01-08 18:12:00,40.6,0.0,30.28,South,191,0.0,0.0,0,0.00,,---,0.00,VWS V14.00,2013-01-08 23:12:00,
2013-01-08 18:17:00,41.4,0.0,30.28,South,191,0.0,0.0,0,0.00,,---,0.00,VWS V14.00,2013-01-08 23:17:00,
2013-01-08 18:22:00,40.7,0.0,30.29,South,191,0.0,0.0,0,0.00,,---,0.00,VWS V14.00,2013-01-08 23:22:00,
2013-01-08 18:27:00,39.4,0.0,30.29,South,191,0.0,0.0,0,0.00,,---,0.00,VWS V14.00,2013-01-08 23:27:00,
2013-01-08 18:32:00,38.7,0.0,30.29,South,191,0.0,0.0,0,0.00,,---,0.00,VWS V14.00,2013-01-08 23:32:00,
2013-01-08 18:37:00,38.3,0.0,30.29,South,191,0.0,0.0,0,0.00,,---,0.00,VWS V14.00,2013-01-08 23:37:00,
2013-01-08 18:42:00,38.2,0.0,30.29,South,191,0.0,0.0,0,0.00,,---,0.00,VWS V14.00,2013-01-08 23:42:00,
2013-01-08 18:47:00,38.1,0.0,30.30,South,191,0.0,0.0,0,0.00,,---,0.00,VWS V14.00,2013-01-08 23:47:00,
2013-01-08 18:52:00,38.1,0.0,30.30,South,191,0.0,0.0,0,0.00,,---,0.00,VWS V14.00,2013-01-08 23:52:00,
2013-01-08 18:57:00,38.3,0.0,30.30,South,191,0.0,0.0,0,0.00,,---,0.00,VWS V14.00,2013-01-08 23:57:00,
2013-01-08 19:02:00,38.4,0.0,30.30,South,191,0.0,0.0,0,0.00,,---,0.00,VWS V14.00,2013-01-09 00:02:00,
2013-01-08 19:07:00,38.4,0.0,30.30,South,191,0.0,0.0,0,0.00,,---,0.00,VWS V14.00,2013-01-09 00:07:00,
2013-01-08 19:12:00,38.5,0.0,30.31,South,191,0.0,0.0,0,0.00,,---,0.00,VWS V14.00,2013-01-09 00:12:00,
2013-01-08 19:17:00,38.4,0.0,30.31,South,191,0.0,0.0,0,0.00,,---,0.00,VWS V14.00,2013-01-09 00:17:00,
2013-01-08 19:22:00,38.4,0.0,30.31,SSW,194,0.0,8.3,0,0.00,,---,0.00,VWS V14.00,2013-01-09 00:22:00,
2013-01-08 19:27:00,38.2,0.0,30.31,WSW,256,0.0,7.4,0,0.00,,---,0.00,VWS V14.00,2013-01-09 00:27:00,
2013-01-08 19:32:00,38.0,0.0,30.31,SW,236,6.3,7.9,0,0.00,,---,0.00,VWS V14.00,2013-01-09 00:32:00,
2013-01-08 19:37:00,38.0,0.0,30.31,SSW,211,0.0,7.8,0,0.00,,---,0.00,VWS V14.00,2013-01-09 00:37:00,
2013-01-08 19:42:00,38.1,0.0,30.31,SSW,211,0.0,7.8,0,0.00,,---,0.00,VWS V14.00,2013-01-09 00:42:00,
2013-01-08 19:47:00,38.1,0.0,30.31,SW,215,0.0,0.0,0,0.00,,---,0.00,VWS V14.00,2013-01-09 00:47:00,
2013-01-08 19:52:00,37.8,0.0,30.31,SSW,193,0.0,6.6,0,0.00,,---,0.00,VWS V14.00,2013-01-09 00:52:00,
2013-01-08 19:57:00,38.0,0.0,30.31,WSW,245,4.3,5.0,0,0.00,,---,0.00,VWS V14.00,2013-01-09 00:57:00,
2013-01-08 20:02:00,37.9,0.0,30.31,SW,229,0.0,5.3,0,0.00,,---,0.00,VWS V14.00,2013-01-09 01:02:00,
2013-01-08 20:07:00,37.8,0.0,30.31,WSW,240,3.4,6.5,0,0.00,,---,0.00,VWS V14.00,2013-01-09 01:07:00,
2013-01-08 20:11:00,37.7,0.0,30.31,WSW,243,0.0,5.9,0,0.00,,---,0.00,VWS V14.00,2013-01-09 01:11:00,
2013-01-08 20:16:00,37.7,0.0,30.31,WSW,243,0.0,0.0,0,0.00,,---,0.00,VWS V14.00,2013-01-09 01:16:00,
2013-01-08 20:21:00,37.8,0.0,30.31,WSW,243,0.0,0.0,0,0.00,,---,0.00,VWS V14.00,2013-01-09 01:21:00,
2013-01-08 20:26:00,37.8,0.0,30.31,WSW,243,0.0,0.0,0,0.00,,---,0.00,VWS V14.00,2013-01-09 01:26:00,
2013-01-08 20:31:00,37.6,0.0,30.31,WSW,243,0.0,6.3,0,0.00,,---,0.00,VWS V14.00,2013-01-09 01:31:00,
2013-01-08 20:36:00,37.4,0.0,30.31,WSW,243,0.0,0.0,0,0.00,,---,0.00,VWS V14.00,2013-01-09 01:36:00,
2013-01-08 20:41:00,37.7,0.0,30.31,WSW,243,0.0,0.0,0,0.00,,---,0.00,VWS V14.00,2013-01-09 01:41:00,
2013-01-08 20:46:00,37.6,0.0,30.31,SSW,200,0.0,0.0,0,0.00,,---,0.00,VWS V14.00,2013-01-09 01:46:00,
2013-01-08 20:51:00,37.8,0.0,30.31,SSW,204,0.0,7.7,0,0.00,,---,0.00,VWS V14.00,2013-01-09 01:51:00,
2013-01-08 20:56:00,37.9,0.0,30.31,SSW,204,0.0,0.0,0,0.00,,---,0.00,VWS V14.00,2013-01-09 01:56:00,
2013-01-08 21:01:00,37.4,0.0,30.31,West,271,0.0,5.5,0,0.00,,---,0.00,VWS V14.00,2013-01-09 02:01:00,
2013-01-08 21:06:00,37.1,0.0,30.31,NW,323,0.0,7.3,0,0.00,,---,0.00,VWS V14.00,2013-01-09 02:06:00,
2013-01-08 21:11:00,35.5,0.0,30.31,NW,323,0.0,4.8,0,0.00,,---,0.00,VWS V14.00,2013-01-09 02:11:00,
2013-01-08 21:16:00,35.3,0.0,30.31,NW,323,0.0,0.0,0,0.00,,---,0.00,VWS V14.00,2013-01-09 02:16:00,
2013-01-08 21:21:00,35.6,0.0,30.31,NW,323,0.0,0.0,0,0.00,,---,0.00,VWS V14.00,2013-01-09 02:21:00,
2013-01-08 21:26:00,35.4,0.0,30.31,NW,323,0.0,0.0,0,0.00,,---,0.00,VWS V14.00,2013-01-09 02:26:00,
2013-01-08 21:31:00,35.2,0.0,30.31,NW,323,0.0,0.0,0,0.00,,---,0.00,VWS V14.00,2013-01-09 02:31:00,
2013-01-08 21:36:00,35.0,0.0,30.30,NW,323,0.0,0.0,0,0.00,,---,0.00,VWS V14.00,2013-01-09 02:36:00,
2013-01-08 21:41:00,35.0,0.0,30.30,NW,323,0.0,0.0,0,0.00,,---,0.00,VWS V14.00,2013-01-09 02:41:00,
2013-01-08 21:46:00,35.5,0.0,30.31,NW,323,0.0,0.0,0,0.00,,---,0.00,VWS V14.00,2013-01-09 02:46:00,
2013-01-08 21:52:00,35.3,0.0,30.31,NW,323,0.0,0.0,0,0.00,,---,0.00,VWS V14.00,2013-01-09 02:52:00,
2013-01-08 21:57:00,34.8,0.0,30.31,NW,323,0.0,0.0,0,0.00,,---,0.00,VWS V14.00,2013-01-09 02:57:00,
2013-01-08 22:02:00,34.2,0.0,30.32,NW,323,0.0,0.0,0,0.00,,---,0.00,VWS V14.00,2013-01-09 03:02:00,
2013-01-08 22:07:00,34.7,0.0,30.31,NW,323,0.0,0.0,0,0.00,,---,0.00,VWS V14.00,2013-01-09 03:07:00,
2013-01-08 22:12:00,34.3,0.0,30.31,NNW,328,0.0,5.4,0,0.00,,---,0.00,VWS V14.00,2013-01-09 03:12:00,
2013-01-08 22:17:00,33.9,0.0,30.31,NNW,328,0.0,0.0,0,0.00,,---,0.00,VWS V14.00,2013-01-09 03:17:00,
2013-01-08 22:22:00,33.5,0.0,30.32,NNW,328,0.0,0.0,0,0.00,,---,0.00,VWS V14.00,2013-01-09 03:22:00,
2013-01-08 22:26:00,33.4,0.0,30.32,NNW,328,0.0,0.0,0,0.00,,---,0.00,VWS V14.00,2013-01-09 03:26:00,
2013-01-08 22:31:00,33.4,0.0,30.32,NNW,328,0.0,0.0,0,0.00,,---,0.00,VWS V14.00,2013-01-09 03:31:00,
2013-01-08 22:36:00,33.1,0.0,30.32,NNW,328,0.0,0.0,0,0.00,,---,0.00,VWS V14.00,2013-01-09 03:36:00,
2013-01-08 22:41:00,33.0,0.0,30.32,NNW,328,0.0,0.0,0,0.00,,---,0.00,VWS V14.00,2013-01-09 03:41:00,
2013-01-08 22:46:00,32.7,0.0,30.32,NNW,328,0.0,0.0,0,0.00,,---,0.00,VWS V14.00,2013-01-09 03:46:00,
2013-01-08 22:52:00,32.6,0.0,30.32,NNW,328,0.0,0.0,0,0.00,,---,0.00,VWS V14.00,2013-01-09 03:52:00,
2013-01-08 22:57:00,32.4,0.0,30.32,NNW,328,0.0,0.0,0,0.00,,---,0.00,VWS V14.00,2013-01-09 03:57:00,
2013-01-08 23:02:00,32.3,0.0,30.33,NNW,328,0.0,0.0,0,0.00,,---,0.00,VWS V14.00,2013-01-09 04:02:00,
2013-01-08 23:06:00,32.3,0.0,30.33,NNW,328,0.0,0.0,0,0.00,,---,0.00,VWS V14.00,2013-01-09 04:06:00,
2013-01-08 23:11:00,32.4,0.0,30.33,NNW,328,0.0,0.0,0,0.00,,---,0.00,VWS V14.00,2013-01-09 04:11:00,
2013-01-08 23:16:00,32.5,0.0,30.33,NNW,328,0.0,0.0,0,0.00,,---,0.00,VWS V14.00,2013-01-09 04:16:00,
2013-01-08 23:21:00,32.4,0.0,30.33,NNW,328,0.0,0.0,0,0.00,,---,0.00,VWS V14.00,2013-01-09 04:21:00,
2013-01-08 23:26:00,32.4,0.0,30.33,NNW,328,0.0,0.0,0,0.00,,---,0.00,VWS V14.00,2013-01-09 04:26:00,
2013-01-08 23:31:00,32.2,0.0,30.33,NNW,328,0.0,0.0,0,0.00,,---,0.00,VWS V14.00,2013-01-09 04:31:00,
2013-01-08 23:36:00,32.0,0.0,30.33,NNW,328,0.0,0.0,0,0.00,,---,0.00,VWS V14.00,2013-01-09 04:36:00,
2013-01-08 23:41:00,31.8,0.0,30.33,NNW,328,0.0,0.0,0,0.00,,---,0.00,VWS V14.00,2013-01-09 04:41:00,
2013-01-08 23:46:00,31.7,0.0,30.34,NNW,328,0.0,0.0,0,0.00,,---,0.00,VWS V14.00,2013-01-09 04:46:00,
2013-01-08 23:51:00,31.9,0.0,30.34,NNW,328,0.0,0.0,0,0.00,,---,0.00,VWS V14.00,2013-01-09 04:51:00,